Time;durP1;ratioP1;P1;durP2;ratioP2;P2;SDS_P1;SDS_P2;PMS_P1;PMS_P2;Temp;Humidity;BMP_temperature;BMP_pressure;BME280_temperature;BME280_humidity;BME280_pressure;Samples;Min_cycle;Max_cycle;Signal;HPM_P1;HPM_P2
2022/01/06 00:00:23;;;;;;;12.43;8.98;;;;;;;-140.79;100.00;63287.88;5026075;28;20029;-54
2022/01/06 00:02:48;;;;;;;12.48;8.85;;;;;;;-140.79;100.00;63287.88;5025791;28;20487;-53
2022/01/06 00:05:13;;;;;;;12.02;8.88;;;;;;;-140.79;100.00;63287.88;5025696;28;20144;-55
2022/01/06 00:07:39;;;;;;;12.70;9.23;;;;;;;-140.79;100.00;63287.88;5025542;28;20026;-53
2022/01/06 00:10:07;;;;;;;11.45;8.65;;;;;;;-140.79;100.00;63287.88;5025413;28;20025;-54
2022/01/06 00:12:41;;;;;;;11.55;8.50;;;;;;;-140.79;100.00;63287.88;5025630;28;20025;-54
2022/01/06 00:25:44;;;;;;;11.55;8.82;;;;;;;-140.79;100.00;63287.88;5025113;28;20056;-54
2022/01/06 00:28:09;;;;;;;10.60;8.27;;;;;;;-140.79;100.00;63287.88;5023588;28;20025;-54
2022/01/06 00:30:35;;;;;;;12.02;8.52;;;;;;;-140.79;100.00;63287.88;5025184;28;20036;-53
2022/01/06 00:33:00;;;;;;;11.77;8.80;;;;;;;-140.79;100.00;63287.88;5025040;28;20029;-53
2022/01/06 00:35:26;;;;;;;12.30;9.02;;;;;;;-140.79;100.00;63287.88;5025327;28;20041;-53
2022/01/06 00:37:51;;;;;;;10.80;8.23;;;;;;;-140.79;100.00;63287.88;5025115;28;20037;-54
2022/01/06 00:40:16;;;;;;;10.38;8.27;;;;;;;-140.79;100.00;63287.88;5025002;28;20033;-53
2022/01/06 00:42:42;;;;;;;11.48;8.43;;;;;;;-140.79;100.00;63287.88;5025008;28;20034;-54
2022/01/06 00:45:08;;;;;;;10.68;8.18;;;;;;;-140.79;100.00;63287.88;5025002;28;20467;-51
2022/01/06 00:47:34;;;;;;;12.07;8.98;;;;;;;-140.79;100.00;63287.88;5024691;28;20033;-55
2022/01/06 00:49:59;;;;;;;10.90;8.48;;;;;;;-140.79;100.00;63287.88;5024687;28;20037;-54
2022/01/06 00:52:25;;;;;;;12.15;8.70;;;;;;;-140.79;100.00;63287.88;5040139;28;20672;-54
2022/01/06 00:54:50;;;;;;;11.40;8.18;;;;;;;-140.79;100.00;63287.88;5025046;28;20419;-53
2022/01/06 00:57:16;;;;;;;11.13;8.35;;;;;;;-140.79;100.00;63287.88;5024797;28;20559;-54
2022/01/06 00:59:41;;;;;;;12.52;8.48;;;;;;;-140.79;100.00;63287.88;5024804;28;20036;-53
2022/01/06 01:02:06;;;;;;;12.48;8.32;;;;;;;-140.79;100.00;63287.88;5024604;28;20536;-53
2022/01/06 01:04:32;;;;;;;11.68;8.45;;;;;;;-140.79;100.00;63287.88;5024948;28;20476;-54
2022/01/06 01:06:57;;;;;;;11.38;8.25;;;;;;;-140.79;100.00;63287.88;5024727;28;20033;-54
2022/01/06 01:09:23;;;;;;;10.60;8.23;;;;;;;-140.79;100.00;63287.88;5023346;28;20040;-53
2022/01/06 01:11:48;;;;;;;10.95;8.25;;;;;;;-140.79;100.00;63287.88;5024644;28;20048;-54
2022/01/06 01:14:18;;;;;;;10.52;8.13;;;;;;;-140.79;100.00;63287.88;5024122;28;20037;-54
2022/01/06 01:16:53;;;;;;;11.18;8.25;;;;;;;-140.79;100.00;63287.88;5024451;28;20056;-53
2022/01/06 01:19:19;;;;;;;11.15;8.15;;;;;;;-140.79;100.00;63287.88;5038735;28;20068;-55
2022/01/06 01:21:45;;;;;;;11.88;8.77;;;;;;;-140.79;100.00;63287.88;5023374;28;20535;-54
2022/01/06 01:24:10;;;;;;;11.75;8.85;;;;;;;-140.79;100.00;63287.88;5023914;28;20516;-54
2022/01/06 01:26:36;;;;;;;11.10;8.35;;;;;;;-140.79;100.00;63287.88;5024453;28;20025;-51
2022/01/06 01:29:01;;;;;;;10.73;8.15;;;;;;;-140.79;100.00;63287.88;5024157;28;20060;-54
2022/01/06 01:31:31;;;;;;;10.65;8.05;;;;;;;-140.79;100.00;63287.88;5024598;28;20030;-54
2022/01/06 01:33:59;;;;;;;11.30;8.65;;;;;;;-140.79;100.00;63287.88;5023953;28;20087;-54
2022/01/06 01:36:25;;;;;;;10.48;7.80;;;;;;;-140.79;100.00;63287.88;5008141;28;20056;-55
2022/01/06 01:38:50;;;;;;;10.98;8.02;;;;;;;-140.79;100.00;63287.88;5039647;28;20517;-54
2022/01/06 01:41:16;;;;;;;11.15;7.60;;;;;;;-140.79;100.00;63287.88;5024112;28;20419;-52
2022/01/06 01:43:43;;;;;;;10.18;7.47;;;;;;;-140.79;100.00;63287.88;5024019;28;20048;-52
2022/01/06 01:46:13;;;;;;;10.98;7.97;;;;;;;-140.79;100.00;63287.88;5023867;28;20079;-54
2022/01/06 01:48:42;;;;;;;10.50;7.63;;;;;;;-140.79;100.00;63287.88;5023912;28;20026;-54
2022/01/06 01:51:08;;;;;;;10.88;7.53;;;;;;;-140.79;100.00;63287.88;5024140;28;20741;-54
2022/01/06 01:53:35;;;;;;;10.05;7.97;;;;;;;-140.79;100.00;63287.88;5024013;28;20041;-54
2022/01/06 01:56:00;;;;;;;10.25;7.47;;;;;;;-140.79;100.00;63287.88;5023457;28;20038;-54
2022/01/06 01:58:26;;;;;;;10.60;7.57;;;;;;;-140.79;100.00;63287.88;5022408;28;20180;-54
2022/01/06 02:00:51;;;;;;;10.20;7.70;;;;;;;-140.79;100.00;63287.88;5022763;28;20045;-54
2022/01/06 02:03:17;;;;;;;9.63;7.88;;;;;;;-140.79;100.00;63287.88;5023668;28;20033;-55
2022/01/06 02:05:42;;;;;;;10.57;7.65;;;;;;;-140.79;100.00;63287.88;5023797;28;20087;-54
2022/01/06 02:08:08;;;;;;;11.25;8.23;;;;;;;-140.79;100.00;63287.88;5023368;28;20099;-54
2022/01/06 02:10:33;;;;;;;10.68;7.75;;;;;;;-140.79;100.00;63287.88;5025717;28;20033;-54
2022/01/06 02:13:01;;;;;;;9.15;7.68;;;;;;;-140.79;100.00;63287.88;5042837;28;20025;-55
2022/01/06 02:15:26;;;;;;;12.13;8.05;;;;;;;-140.79;100.00;63287.88;5027773;28;20044;-54
2022/01/06 02:17:52;;;;;;;9.52;7.20;;;;;;;-140.79;100.00;63287.88;5042840;28;20120;-53
2022/01/06 02:20:18;;;;;;;10.15;7.75;;;;;;;-140.79;100.00;63287.88;5027864;28;20484;-54
2022/01/06 02:22:44;;;;;;;9.48;7.68;;;;;;;-140.79;100.00;63287.88;5027322;28;20124;-51
2022/01/06 02:25:17;;;;;;;9.32;7.32;;;;;;;-140.79;100.00;63287.88;5027375;28;20144;-54
2022/01/06 02:27:46;;;;;;;10.68;7.70;;;;;;;-140.79;100.00;63287.88;5027490;28;20033;-53
2022/01/06 02:30:12;;;;;;;9.60;7.32;;;;;;;-140.79;100.00;63287.88;5027266;28;20597;-53
2022/01/06 02:32:38;;;;;;;10.00;7.07;;;;;;;-140.79;100.00;63287.88;5027288;28;20084;-53
2022/01/06 02:35:05;;;;;;;9.77;7.40;;;;;;;-140.79;100.00;63287.88;5027110;28;20038;-54
2022/01/06 02:37:31;;;;;;;9.15;7.05;;;;;;;-140.79;100.00;63287.88;5027269;28;20029;-54
2022/01/06 02:39:56;;;;;;;9.63;7.30;;;;;;;-140.79;100.00;63287.88;5027310;28;20029;-54
2022/01/06 02:42:22;;;;;;;9.13;6.93;;;;;;;-140.79;100.00;63287.88;5027452;28;20040;-52
2022/01/06 02:44:48;;;;;;;10.32;7.22;;;;;;;-140.79;100.00;63287.88;5026899;28;20120;-54
2022/01/06 02:47:14;;;;;;;9.40;7.28;;;;;;;-140.79;100.00;63287.88;5026765;28;20025;-53
2022/01/06 02:49:39;;;;;;;8.75;7.28;;;;;;;-140.79;100.00;63287.88;5026933;28;20893;-54
2022/01/06 02:52:05;;;;;;;10.48;7.68;;;;;;;-140.79;100.00;63287.88;5025604;28;20029;-54
2022/01/06 02:54:30;;;;;;;8.73;6.80;;;;;;;-140.79;100.00;63287.88;5026659;28;20036;-54
2022/01/06 02:56:56;;;;;;;8.65;7.03;;;;;;;-140.79;100.00;63287.88;5026522;28;20056;-53
2022/01/06 02:59:22;;;;;;;9.82;7.28;;;;;;;-140.79;100.00;63287.88;5027151;28;20028;-54
2022/01/06 03:01:47;;;;;;;9.35;6.82;;;;;;;-140.79;100.00;63287.88;5026775;28;20029;-54
2022/01/06 03:04:13;;;;;;;9.02;7.07;;;;;;;-140.79;100.00;63287.88;5026838;28;20412;-54
2022/01/06 03:06:39;;;;;;;9.80;7.40;;;;;;;-140.79;100.00;63287.88;5026639;28;20539;-53
2022/01/06 03:09:04;;;;;;;9.48;7.10;;;;;;;-140.79;100.00;63287.88;5041559;28;20041;-54
2022/01/06 03:11:30;;;;;;;9.32;6.90;;;;;;;-140.79;100.00;63287.88;5026836;28;20029;-52
2022/01/06 03:13:56;;;;;;;8.70;6.80;;;;;;;-140.79;100.00;63287.88;5026520;28;20033;-55
2022/01/06 03:16:21;;;;;;;9.35;7.22;;;;;;;-140.79;100.00;63287.88;5026616;28;20037;-54
2022/01/06 03:18:47;;;;;;;9.73;7.35;;;;;;;-140.79;100.00;63287.88;5041693;28;20496;-54
2022/01/06 03:21:12;;;;;;;8.70;6.93;;;;;;;-140.79;100.00;63287.88;5025264;28;20033;-54
2022/01/06 03:23:38;;;;;;;9.20;6.85;;;;;;;-140.79;100.00;63287.88;5025796;28;20376;-54
2022/01/06 03:26:03;;;;;;;9.20;6.93;;;;;;;-140.79;100.00;63287.88;5026603;28;20033;-54
2022/01/06 03:28:29;;;;;;;10.02;6.82;;;;;;;-140.79;100.00;63287.88;5026473;28;20028;-53
2022/01/06 03:30:54;;;;;;;8.73;7.18;;;;;;;-140.79;100.00;63287.88;5026234;28;20034;-53
2022/01/06 03:33:20;;;;;;;8.95;6.82;;;;;;;-140.79;100.00;63287.88;5026168;28;20545;-51
2022/01/06 03:35:45;;;;;;;9.07;6.95;;;;;;;-140.79;100.00;63287.88;5026198;28;20033;-53
2022/01/06 03:38:10;;;;;;;8.90;6.65;;;;;;;-140.79;100.00;63287.88;5026360;28;20048;-54
2022/01/06 03:40:36;;;;;;;9.50;7.22;;;;;;;-140.79;100.00;63287.88;5026273;28;20040;-54
2022/01/06 03:43:01;;;;;;;10.20;7.18;;;;;;;-140.79;100.00;63287.88;5025676;28;20025;-53
2022/01/06 03:45:27;;;;;;;8.85;7.20;;;;;;;-140.79;100.00;63287.88;5026129;28;20259;-51
2022/01/06 03:47:52;;;;;;;9.88;7.13;;;;;;;-140.79;100.00;63287.88;5025964;28;20025;-53
2022/01/06 03:50:18;;;;;;;8.48;6.75;;;;;;;-140.79;100.00;63287.88;5026270;28;20029;-51
2022/01/06 03:52:43;;;;;;;8.88;6.57;;;;;;;-140.79;100.00;63287.88;5025870;28;20018;-54
2022/01/06 03:55:14;;;;;;;8.73;6.75;;;;;;;-140.79;100.00;63287.88;5025843;28;20045;-53
2022/01/06 03:57:39;;;;;;;9.70;7.07;;;;;;;-140.79;100.00;63287.88;5026175;28;20026;-54
2022/01/06 04:00:06;;;;;;;8.60;6.45;;;;;;;-140.79;100.00;63287.88;5025670;28;20511;-54
2022/01/06 04:02:31;;;;;;;8.90;6.63;;;;;;;-140.79;100.00;63287.88;5025880;28;20119;-54
2022/01/06 04:04:57;;;;;;;8.65;6.38;;;;;;;-140.79;100.00;63287.88;5025498;28;20037;-53
2022/01/06 04:07:22;;;;;;;9.02;6.45;;;;;;;-140.79;100.00;63287.88;5025652;28;20033;-54
2022/01/06 04:09:47;;;;;;;8.25;6.70;;;;;;;-140.79;100.00;63287.88;5025685;28;20045;-51
2022/01/06 04:12:13;;;;;;;8.02;6.00;;;;;;;-140.79;100.00;63287.88;5024556;28;20052;-53
2022/01/06 04:14:39;;;;;;;8.45;6.38;;;;;;;-140.79;100.00;63287.88;5025258;28;20041;-54
2022/01/06 04:17:07;;;;;;;8.48;6.28;;;;;;;-140.79;100.00;63287.88;5025057;28;20424;-53
2022/01/06 04:19:34;;;;;;;8.73;6.43;;;;;;;-140.79;100.00;63287.88;5025446;28;20116;-53
2022/01/06 04:21:59;;;;;;;9.10;6.35;;;;;;;-140.79;100.00;63287.88;5025259;28;20802;-54
2022/01/06 04:24:24;;;;;;;8.23;6.97;;;;;;;-140.79;100.00;63287.88;5025240;28;20044;-53
2022/01/06 04:26:50;;;;;;;8.63;6.25;;;;;;;-140.79;100.00;63287.88;5025418;28;20045;-54
2022/01/06 04:29:15;;;;;;;7.70;6.03;;;;;;;-140.79;100.00;63287.88;5024941;28;20032;-51
2022/01/06 04:31:41;;;;;;;8.25;6.28;;;;;;;-140.79;100.00;63287.88;5023630;28;20578;-54
2022/01/06 04:34:06;;;;;;;8.00;6.28;;;;;;;-140.79;100.00;63287.88;5024421;28;20061;-54
2022/01/06 04:36:32;;;;;;;8.48;6.40;;;;;;;-140.79;100.00;63287.88;5024813;28;20120;-53
2022/01/06 04:38:57;;;;;;;8.40;6.15;;;;;;;-140.79;100.00;63287.88;5024856;28;20029;-54
2022/01/06 04:41:22;;;;;;;8.55;6.10;;;;;;;-140.79;100.00;63287.88;5025065;28;20092;-54
2022/01/06 04:43:48;;;;;;;9.10;6.55;;;;;;;-140.79;100.00;63287.88;5024671;28;20891;-52
2022/01/06 04:46:14;;;;;;;8.52;5.97;;;;;;;-140.79;100.00;63287.88;5025128;28;20496;-54
2022/01/06 04:48:40;;;;;;;8.88;6.40;;;;;;;-140.79;100.00;63287.88;5024750;28;20029;-52
2022/01/06 04:51:05;;;;;;;7.63;5.75;;;;;;;-140.79;100.00;63287.88;5022788;28;20408;-52
2022/01/06 04:53:30;;;;;;;7.82;6.10;;;;;;;-140.79;100.00;63287.88;5024617;28;20411;-54
2022/01/06 04:55:58;;;;;;;8.55;6.22;;;;;;;-140.79;100.00;63287.88;5024577;28;20594;-54
2022/01/06 04:58:23;;;;;;;7.75;6.10;;;;;;;-140.79;100.00;63287.88;5025040;28;20136;-53
2022/01/06 05:00:49;;;;;;;7.80;5.75;;;;;;;-140.79;100.00;63287.88;5024439;28;20029;-54
2022/01/06 05:03:14;;;;;;;7.65;5.68;;;;;;;-140.79;100.00;63287.88;5022740;28;20090;-55
2022/01/06 05:05:39;;;;;;;8.70;6.38;;;;;;;-140.79;100.00;63287.88;5024715;28;20075;-54
2022/01/06 05:08:05;;;;;;;7.45;5.80;;;;;;;-140.79;100.00;63287.88;5024554;28;20041;-54
2022/01/06 05:10:30;;;;;;;7.07;5.50;;;;;;;-140.79;100.00;63287.88;5024525;28;20439;-54
2022/01/06 05:12:56;;;;;;;7.97;5.72;;;;;;;-140.79;100.00;63287.88;5024526;28;20803;-54
2022/01/06 05:15:21;;;;;;;7.85;5.97;;;;;;;-140.79;100.00;63287.88;5023881;28;20030;-54
2022/01/06 05:17:46;;;;;;;7.57;5.80;;;;;;;-140.79;100.00;63287.88;5024174;28;20064;-54
2022/01/06 05:20:12;;;;;;;7.68;5.57;;;;;;;-140.79;100.00;63287.88;5023809;28;20071;-51
2022/01/06 05:22:43;;;;;;;8.10;6.10;;;;;;;-140.79;100.00;63287.88;5024072;28;20052;-54
2022/01/06 05:25:09;;;;;;;8.10;6.15;;;;;;;-140.79;100.00;63287.88;5024277;28;20131;-54
2022/01/06 05:27:35;;;;;;;7.93;5.93;;;;;;;-140.79;100.00;63287.88;5024238;28;20087;-54
2022/01/06 05:30:00;;;;;;;8.50;6.05;;;;;;;-140.79;100.00;63287.88;5022873;28;20504;-54
2022/01/06 05:32:25;;;;;;;7.65;5.68;;;;;;;-140.79;100.00;63287.88;5023926;28;20034;-54
2022/01/06 05:34:51;;;;;;;7.88;5.88;;;;;;;-140.79;100.00;63287.88;5024222;28;20026;-55
2022/01/06 05:37:16;;;;;;;7.75;5.55;;;;;;;-140.79;100.00;63287.88;5023964;28;20034;-55
2022/01/06 05:39:42;;;;;;;6.97;5.50;;;;;;;-140.79;100.00;63287.88;5024114;28;20467;-55
2022/01/06 05:42:07;;;;;;;7.70;5.30;;;;;;;-140.79;100.00;63287.88;5024176;28;20459;-54
2022/01/06 05:44:34;;;;;;;7.85;5.88;;;;;;;-140.79;100.00;63287.88;5024326;28;20040;-53
2022/01/06 05:47:00;;;;;;;7.07;5.70;;;;;;;-140.79;100.00;63287.88;5027989;28;20037;-54
2022/01/06 05:49:25;;;;;;;7.03;5.15;;;;;;;-140.79;100.00;63287.88;5028220;28;20029;-54
2022/01/06 05:51:50;;;;;;;8.00;5.90;;;;;;;-140.79;100.00;63287.88;5028026;28;20140;-54
2022/01/06 05:54:16;;;;;;;7.47;5.63;;;;;;;-140.79;100.00;63287.88;5027929;28;20032;-52
2022/01/06 05:56:41;;;;;;;7.40;5.47;;;;;;;-140.79;100.00;63287.88;5043117;28;20040;-54
2022/01/06 05:59:07;;;;;;;7.53;5.43;;;;;;;-140.79;100.00;63287.88;5027845;28;20415;-55
2022/01/06 06:01:32;;;;;;;7.55;5.50;;;;;;;-140.79;100.00;63287.88;5027673;28;20032;-55
2022/01/06 06:03:58;;;;;;;7.70;5.53;;;;;;;-140.79;100.00;63287.88;5027701;28;20030;-54
2022/01/06 06:06:23;;;;;;;7.80;5.40;;;;;;;-140.79;100.00;63287.88;5024895;28;20762;-56
2022/01/06 06:08:48;;;;;;;7.20;5.60;;;;;;;-140.79;100.00;63287.88;5007388;28;20114;-55
2022/01/06 06:11:14;;;;;;;7.32;5.13;;;;;;;-140.79;100.00;63287.88;5007632;28;20535;-53
2022/01/06 06:13:39;;;;;;;7.43;5.15;;;;;;;-140.79;100.00;63287.88;5008500;28;20029;-54
2022/01/06 06:16:05;;;;;;;7.45;5.63;;;;;;;-140.79;100.00;63287.88;5008515;28;20038;-56
2022/01/06 06:18:30;;;;;;;6.72;5.20;;;;;;;-140.79;100.00;63287.88;5019934;28;20079;-54
2022/01/06 06:20:55;;;;;;;8.65;5.70;;;;;;;-140.79;100.00;63287.88;5017869;28;20033;-55
2022/01/06 06:23:21;;;;;;;7.43;5.55;;;;;;;-140.79;100.00;63287.88;5026538;28;20107;-54
2022/01/06 06:25:46;;;;;;;9.20;5.53;;;;;;;-140.79;100.00;63287.88;5026941;28;20030;-55
2022/01/06 06:28:12;;;;;;;7.13;4.90;;;;;;;-140.79;100.00;63287.88;5027993;28;20025;-52
2022/01/06 06:30:37;;;;;;;7.13;5.10;;;;;;;-140.79;100.00;63287.88;5027424;28;20029;-55
2022/01/06 06:33:03;;;;;;;6.88;4.90;;;;;;;-140.79;100.00;63287.88;5023118;28;20030;-55
2022/01/06 06:35:29;;;;;;;7.95;4.93;;;;;;;-140.79;100.00;63287.88;5026635;28;20033;-55
2022/01/06 06:37:55;;;;;;;6.10;4.82;;;;;;;-140.79;100.00;63287.88;5027092;28;20118;-55
2022/01/06 06:40:22;;;;;;;6.30;4.57;;;;;;;-140.79;100.00;63287.88;5022865;28;20018;-53
2022/01/06 06:42:48;;;;;;;6.72;5.10;;;;;;;-140.79;100.00;63287.88;5019042;28;20029;-54
2022/01/06 06:45:14;;;;;;;6.97;5.13;;;;;;;-140.79;100.00;63287.88;5024972;28;20021;-55
2022/01/06 06:47:39;;;;;;;6.47;4.57;;;;;;;-140.79;100.00;63287.88;5026488;28;20061;-54
2022/01/06 06:50:05;;;;;;;6.30;4.70;;;;;;;-140.79;100.00;63287.88;5026169;28;20029;-54
2022/01/06 06:52:31;;;;;;;6.50;4.65;;;;;;;-140.79;100.00;63287.88;5026593;28;20024;-53
2022/01/06 06:54:56;;;;;;;6.28;4.65;;;;;;;-140.79;100.00;63287.88;5026482;28;20037;-52
2022/01/06 06:57:22;;;;;;;7.50;4.47;;;;;;;-140.79;100.00;63287.88;5057601;28;20029;-55
2022/01/06 06:59:48;;;;;;;6.70;4.47;;;;;;;-140.79;100.00;63287.88;5025810;28;20013;-53
2022/01/06 07:02:13;;;;;;;6.35;5.22;;;;;;;-140.79;100.00;63287.88;5023076;28;20017;-55
2022/01/06 07:04:38;;;;;;;6.55;4.47;;;;;;;-140.79;100.00;63287.88;5025737;28;20005;-53
2022/01/06 07:07:04;;;;;;;5.63;4.85;;;;;;;-140.79;100.00;63287.88;5025253;28;20037;-53
2022/01/06 07:09:29;;;;;;;6.38;4.57;;;;;;;-140.79;100.00;63287.88;5025166;28;20036;-54
2022/01/06 07:11:55;;;;;;;6.63;4.50;;;;;;;-140.79;100.00;63287.88;5025633;28;20029;-55
2022/01/06 07:14:20;;;;;;;6.18;4.00;;;;;;;-140.79;100.00;63287.88;5025541;28;20694;-54
2022/01/06 07:16:45;;;;;;;6.47;4.60;;;;;;;-140.79;100.00;63287.88;5025361;28;20030;-54
2022/01/06 07:19:11;;;;;;;6.00;4.35;;;;;;;-140.79;100.00;63287.88;5024877;28;20507;-53
2022/01/06 07:21:36;;;;;;;6.88;4.65;;;;;;;-140.79;100.00;63287.88;5025287;28;20040;-53
2022/01/06 07:24:02;;;;;;;6.18;4.60;;;;;;;-140.79;100.00;63287.88;5024818;28;20470;-54
2022/01/06 07:26:27;;;;;;;6.05;4.63;;;;;;;-140.79;100.00;63287.88;5025523;28;20065;-54
2022/01/06 07:28:53;;;;;;;6.95;4.55;;;;;;;-140.79;100.00;63287.88;5025340;28;20080;-54
2022/01/06 07:31:18;;;;;;;6.22;4.43;;;;;;;-140.79;100.00;63287.88;5056815;28;20139;-53
2022/01/06 07:33:43;;;;;;;5.55;4.43;;;;;;;-140.79;100.00;63287.88;5024954;28;20428;-53
2022/01/06 07:36:09;;;;;;;5.43;4.18;;;;;;;-140.79;100.00;63287.88;5025262;28;20036;-54
2022/01/06 07:38:34;;;;;;;6.70;4.22;;;;;;;-140.79;100.00;63287.88;5025070;28;20038;-55
2022/01/06 07:41:00;;;;;;;5.43;4.20;;;;;;;-140.79;100.00;63287.88;5025870;28;20034;-54
2022/01/06 07:43:25;;;;;;;5.70;4.53;;;;;;;-140.79;100.00;63287.88;5024657;28;20037;-56
2022/01/06 07:45:51;;;;;;;6.13;4.15;;;;;;;-140.79;100.00;63287.88;5025070;28;20079;-56
2022/01/06 07:48:19;;;;;;;6.32;4.43;;;;;;;-140.79;100.00;63287.88;5021339;28;20033;-55
2022/01/06 07:50:45;;;;;;;4.82;3.88;;;;;;;-140.79;100.00;63287.88;5015148;28;20049;-55
2022/01/06 07:53:10;;;;;;;6.00;4.28;;;;;;;-140.79;100.00;63287.88;5008802;28;20036;-55
2022/01/06 07:55:36;;;;;;;6.45;4.80;;;;;;;-140.79;100.00;63287.88;5023087;28;20033;-55
2022/01/06 07:58:02;;;;;;;6.38;4.30;;;;;;;-140.79;100.00;63287.88;5025535;28;20071;-55
2022/01/06 08:00:27;;;;;;;5.15;4.07;;;;;;;-140.79;100.00;63287.88;5025328;28;20036;-55
2022/01/06 08:02:53;;;;;;;6.65;4.50;;;;;;;-140.79;100.00;63287.88;5025291;28;20128;-56
2022/01/06 08:05:21;;;;;;;6.18;3.70;;;;;;;-140.79;100.00;63287.88;5025162;28;20366;-54
2022/01/06 08:07:47;;;;;;;6.97;4.20;;;;;;;-140.79;100.00;63287.88;5024168;28;20029;-55
2022/01/06 08:10:12;;;;;;;5.88;4.32;;;;;;;-140.79;100.00;63287.88;5025314;28;20091;-56
2022/01/06 08:12:38;;;;;;;5.75;4.30;;;;;;;-140.79;100.00;63287.88;5025202;28;20109;-57
2022/01/06 08:15:04;;;;;;;5.85;4.35;;;;;;;-140.79;100.00;63287.88;5024977;28;20029;-56
2022/01/06 08:17:29;;;;;;;5.93;4.05;;;;;;;-140.79;100.00;63287.88;5024941;28;20099;-57
2022/01/06 08:19:55;;;;;;;5.63;4.15;;;;;;;-140.79;100.00;63287.88;5025018;28;20462;-56
2022/01/06 08:22:20;;;;;;;5.00;4.13;;;;;;;-140.79;100.00;63287.88;5047296;28;20128;-56
2022/01/06 08:24:46;;;;;;;5.43;4.10;;;;;;;-140.79;100.00;63287.88;5017908;28;20049;-55
2022/01/06 08:27:11;;;;;;;6.05;4.32;;;;;;;-140.79;100.00;63287.88;5021937;28;20044;-55
2022/01/06 08:29:37;;;;;;;5.13;4.18;;;;;;;-140.79;100.00;63287.88;5011381;28;20140;-55
2022/01/06 08:32:03;;;;;;;5.90;4.38;;;;;;;-140.79;100.00;63287.88;5024731;28;20041;-59
2022/01/06 08:34:28;;;;;;;5.82;4.82;;;;;;;-140.79;100.00;63287.88;5024441;28;20037;-58
2022/01/06 08:36:54;;;;;;;5.60;4.05;;;;;;;-140.79;100.00;63287.88;5024663;28;20037;-57
2022/01/06 08:39:20;;;;;;;5.63;4.20;;;;;;;-140.79;100.00;63287.88;5024548;28;20033;-56
2022/01/06 08:41:47;;;;;;;6.30;4.80;;;;;;;-140.79;100.00;63287.88;5024900;28;20030;-55
2022/01/06 08:44:12;;;;;;;5.38;4.07;;;;;;;-140.79;100.00;63287.88;5024317;28;20041;-56
2022/01/06 08:46:37;;;;;;;6.10;4.38;;;;;;;-140.79;100.00;63287.88;5024131;28;20056;-58
2022/01/06 08:49:04;;;;;;;6.45;4.20;;;;;;;-140.79;100.00;63287.88;5024751;28;20091;-56
2022/01/06 08:51:29;;;;;;;5.72;4.28;;;;;;;-140.79;100.00;63287.88;5024052;28;20029;-57
2022/01/06 08:53:55;;;;;;;6.03;4.38;;;;;;;-140.79;100.00;63287.88;5024431;28;20029;-57
2022/01/06 08:56:20;;;;;;;5.35;4.22;;;;;;;-140.79;100.00;63287.88;5024407;28;20095;-56
2022/01/06 08:58:45;;;;;;;5.38;4.20;;;;;;;-140.79;100.00;63287.88;5039271;28;20064;-56
2022/01/06 09:01:12;;;;;;;5.05;3.88;;;;;;;-140.79;100.00;63287.88;5022179;28;20100;-56
2022/01/06 09:03:37;;;;;;;4.95;3.78;;;;;;;-140.79;100.00;63287.88;5024419;28;20057;-56
2022/01/06 09:06:03;;;;;;;6.57;4.10;;;;;;;-140.79;100.00;63287.88;5024073;28;20064;-57
2022/01/06 09:08:28;;;;;;;5.53;4.28;;;;;;;-140.79;100.00;63287.88;5038526;28;20026;-55
2022/01/06 09:10:54;;;;;;;5.10;3.85;;;;;;;-140.79;100.00;63287.88;5023706;28;20474;-53
2022/01/06 09:13:19;;;;;;;6.00;4.25;;;;;;;-140.79;100.00;63287.88;5023847;28;20529;-54
2022/01/06 09:15:45;;;;;;;4.80;3.72;;;;;;;-140.79;100.00;63287.88;5024284;28;20128;-56
2022/01/06 09:18:10;;;;;;;5.05;3.80;;;;;;;-140.79;100.00;63287.88;5024192;28;20796;-52
2022/01/06 09:20:35;;;;;;;5.70;4.03;;;;;;;-140.79;100.00;63287.88;5023510;28;20030;-56
2022/01/06 09:23:01;;;;;;;5.30;3.80;;;;;;;-140.79;100.00;63287.88;5055315;28;20041;-53
2022/01/06 09:25:27;;;;;;;5.97;4.30;;;;;;;-140.79;100.00;63287.88;5023497;28;20468;-54
2022/01/06 09:27:54;;;;;;;5.13;3.78;;;;;;;-140.79;100.00;63287.88;5023991;28;20103;-55
2022/01/06 09:30:23;;;;;;;5.50;3.88;;;;;;;-140.79;100.00;63287.88;5023873;28;20124;-55
2022/01/06 09:32:49;;;;;;;7.53;4.20;;;;;;;-140.79;100.00;63287.88;5023579;28;20483;-57
2022/01/06 09:35:14;;;;;;;5.40;4.07;;;;;;;-140.79;100.00;63287.88;5023379;28;20338;-56
2022/01/06 09:37:39;;;;;;;5.15;4.40;;;;;;;-140.79;100.00;63287.88;5023965;28;20060;-55
2022/01/06 09:40:08;;;;;;;6.15;4.25;;;;;;;-140.79;100.00;63287.88;5023751;28;20033;-54
2022/01/06 09:42:33;;;;;;;6.32;4.05;;;;;;;-140.79;100.00;63287.88;5023422;28;20064;-53
2022/01/06 09:44:59;;;;;;;5.18;4.13;;;;;;;-140.79;100.00;63287.88;5023043;28;20500;-55
2022/01/06 09:47:25;;;;;;;5.63;4.32;;;;;;;-140.79;100.00;63287.88;5023794;28;20075;-55
2022/01/06 09:49:51;;;;;;;5.20;3.80;;;;;;;-140.79;100.00;63287.88;5023519;28;20492;-52
2022/01/06 09:52:16;;;;;;;6.28;4.25;;;;;;;-140.79;100.00;63287.88;5022334;28;20044;-55
2022/01/06 09:54:42;;;;;;;4.78;3.70;;;;;;;-140.79;100.00;63287.88;5022144;28;20029;-54
2022/01/06 09:57:08;;;;;;;4.78;4.15;;;;;;;-140.79;100.00;63287.88;5023513;28;20112;-56
2022/01/06 09:59:33;;;;;;;5.07;3.88;;;;;;;-140.79;100.00;63287.88;5023037;28;20036;-52
2022/01/06 10:01:59;;;;;;;4.93;4.03;;;;;;;-140.79;100.00;63287.88;5020861;28;20128;-56
2022/01/06 10:04:27;;;;;;;6.50;4.53;;;;;;;-140.79;100.00;63287.88;5022216;28;20035;-55
2022/01/06 10:07:08;;;;;;;6.88;4.32;;;;;;;-140.79;100.00;63287.88;5022139;28;20049;-56
2022/01/06 10:09:35;;;;;;;8.40;4.20;;;;;;;-140.79;100.00;63287.88;5048564;28;20049;-54
2022/01/06 10:12:06;;;;;;;6.15;4.13;;;;;;;-140.79;100.00;63287.88;5003294;28;20033;-56
2022/01/06 10:14:46;;;;;;;5.85;4.32;;;;;;;-140.79;100.00;63287.88;5003065;28;20795;-51
2022/01/06 10:17:16;;;;;;;5.90;4.68;;;;;;;-140.79;100.00;63287.88;5002529;28;20038;-57
2022/01/06 10:19:42;;;;;;;;;;;;;;;-140.79;100.00;63287.88;5009650;28;20036;-57
2022/01/06 10:22:25;;;;;;;6.30;4.20;;;;;;;-140.79;100.00;63287.88;5023271;28;20338;-55
2022/01/06 10:24:51;;;;;;;4.72;4.00;;;;;;;-140.79;100.00;63287.88;5023358;28;20030;-55
2022/01/06 10:27:18;;;;;;;7.47;5.32;;;;;;;-140.79;100.00;63287.88;5023149;28;20120;-53
2022/01/06 10:29:51;;;;;;;5.80;4.57;;;;;;;-140.79;100.00;63287.88;5023054;28;20091;-55
2022/01/06 10:32:18;;;;;;;6.57;5.28;;;;;;;-140.79;100.00;63287.88;5026346;28;20049;-54
2022/01/06 10:35:04;;;;;;;6.53;4.95;;;;;;;-140.79;100.00;63287.88;5026846;28;20517;-55
2022/01/06 10:37:42;;;;;;;6.70;4.72;;;;;;;-140.79;100.00;63287.88;5026105;28;20050;-57
2022/01/06 10:40:17;;;;;;;5.93;4.80;;;;;;;-140.79;100.00;63287.88;5026930;28;20083;-57
2022/01/06 10:42:46;;;;;;;6.85;4.80;;;;;;;-140.79;100.00;63287.88;5026335;28;20037;-56
2022/01/06 10:45:19;;;;;;;6.45;4.78;;;;;;;-140.79;100.00;63287.88;5026248;28;20037;-55
2022/01/06 10:48:04;;;;;;;6.65;5.00;;;;;;;-140.79;100.00;63287.88;5026368;28;20112;-56
2022/01/06 10:50:35;;;;;;;5.93;4.78;;;;;;;-140.79;100.00;63287.88;5026235;28;20033;-54
2022/01/06 10:53:11;;;;;;;5.57;4.70;;;;;;;-140.79;100.00;63287.88;5026034;28;20169;-55
2022/01/06 10:55:38;;;;;;;6.28;4.65;;;;;;;-140.79;100.00;63287.88;5023134;28;20022;-56
2022/01/06 10:58:05;;;;;;;6.35;4.85;;;;;;;-140.79;100.00;63287.88;5026258;28;20021;-56
2022/01/06 11:00:43;;;;;;;7.93;4.65;;;;;;;-140.79;100.00;63287.88;5041130;28;20031;-57
2022/01/06 11:03:12;;;;;;;6.70;5.07;;;;;;;-140.79;100.00;63287.88;5015694;28;20044;-57
2022/01/06 11:05:40;;;;;;;6.57;5.20;;;;;;;-140.79;100.00;63287.88;5026090;28;20036;-52
2022/01/06 11:08:05;;;;;;;5.63;4.43;;;;;;;-140.79;100.00;63287.88;4994324;28;20069;-56
2022/01/06 11:10:32;;;;;;;7.20;4.38;;;;;;;-140.79;100.00;63287.88;5025515;28;20037;-51
2022/01/06 11:12:58;;;;;;;7.63;4.32;;;;;;;-140.79;100.00;63287.88;5026383;28;20480;-55